METAR AND TAF INFORMATION
METAR FOR LFRC
ADDS - METARS form results

(1325 UTC 13 December 2018)
Data provider http://aviationweather.gov/metar/data/
 
METAR text: LFRC 131300Z AUTO 11016KT 090V150 9999 SCT020 OVC160 04/M02 Q1012 BECMG 12020G30KT
Conditions at: LFRC (CHERBOURG/MAUPER, FR) observed 1300 UTC 13 December 2018
Temperature: 4.0°C (39°F)
Dewpoint: -2.0°C (28°F) [RH = 65%]
Pressure (altimeter): 29.88 inches Hg (1012.0 mb)
Winds: from the ESE (110 degrees) at 18 MPH (16 knots; 8.2 m/s)
Visibility: 6 or more miles (10+ km)
Ceiling: 16000 feet AGL
Clouds: scattered clouds at 2000 feet AGL
overcast cloud deck at 16000 feet AGL
Weather: no significant weather observed at this time

METAR text: LFRC 131230Z AUTO 11016KT 9999 BKN021 BKN160 04/M01 Q1012 BECMG 12020G30KT
Conditions at: LFRC (CHERBOURG/MAUPER, FR) observed 1230 UTC 13 December 2018
Temperature: 4.0°C (39°F)
Dewpoint: -1.0°C (30°F) [RH = 70%]
Pressure (altimeter): 29.88 inches Hg (1012.0 mb)
Winds: from the ESE (110 degrees) at 18 MPH (16 knots; 8.2 m/s)
Visibility: 6 or more miles (10+ km)
Ceiling: 2100 feet AGL
Clouds: broken clouds at 2100 feet AGL
broken clouds at 16000 feet AGL
Weather: no significant weather observed at this time

Forecast for: LFRC (CHERBOURG/MAUPER, FR)
Text: TAF LFRC 131100Z 1312/1321 12020G30KT 9999 FEW020
Forecast period: 1200 to 1600 UTC 13 December 2018
Forecast type: FROM: standard forecast or significant change
Winds: from the ESE (120 degrees) at 23 MPH (20 knots; 10.3 m/s)
gusting to 34 MPH (30 knots; 15.4 m/s)
Visibility: 6 or more miles 10+ km)
Ceiling: at least 12,000 feet AGL
Clouds: few clouds at 2000 feet AGL
Weather: no significant weather forecast for this period
Text: BECMG 1316/1318 10014KT
Forecast period: 1600 to 2100 UTC 13 December 2018
Forecast type: BECOMING: Conditions expected to become as follows by 1800 UTC 13 December 2018
Winds: from the E (100 degrees) at 16 MPH (14 knots; 7.2 m/s)
Visibility: 6 or more miles 10+ km)
Ceiling: at least 12,000 feet AGL
Clouds: few clouds at 2000 feet AGL
Weather: no significant weather forecast for this period

 AIRPORT MAP

 RUNWAY INFORMATION
Runway 10 Runway length 8005 ft Runway width 148 ft
Runway elevation 452 ft Runway displaced threshold 0 ft Runway heading 101
Runway 28 Runway length 8005 ft Runway width 148 ft
Runway elevation 428 ft Runway displaced threshold 0 ft Runway heading 281

 AIRPORT FREQUENCIES
Type APP Name DEAUVILLE Frequency 119.35 MHZ
Type TWR Name CHERBOURG Frequency 119.625 MHZ

 AIRPORT NEAR NAVIGATION AIDS



Powered by Virtual Airlines Manager [v2.6.2]